Archival Weather

Norman Y Mineta San Jose Intl

San Jose, California (KSJC)

Report from: Thursday, February 22, 2024 9:53 AM PST
Current time: Friday, June 14, 2024 4:19 AM PDT

Current weather – Weather history – Daily summaries
Weather forecast

Temperature13.3°C (55.9°F)
Dew point8.3°C (46.9°F)
Winds Calm
Visibility10 mi. (16.1 km)
Clouds Few clouds 500 ft. (152 m)
Few clouds 2,000 ft. (610 m)
Few clouds 4,000 ft. (1,219 m)
Altimeter30.29 in.Hg (1026 mB)
Relative humidity72 %
Density altitude-468 ft. (-143 m)
Sea-level pressure102.6 kPa (1026 mB, 30.29 in.Hg)
Max temp last 6 hours13.3°C (55.9°F)
Min temp last 6 hours7.2°C (45.0°F)
Remarks Automated weather observing station with precipitation discriminator
Pressure rising more slowly
Flight conditions Visual Meteorological Conditions
Raw dataKSJC 221753Z 00000KT 10SM FEW005 FEW020 FEW040 13/08 A3029 RMK AO2 SLP258 T01330083 10133 20072 51014
An error has occurred. This application may no longer respond until reloaded. Reload 🗙